Terminal Aerodrome Forecast
Issued by NWS

Home | Current Version | Previous Version | Text Only | Print | Product List | Glossary On
Versions: 1 2 3 4 5 6 7 8 9 10 11 12 13 14 15 16 17 18 19
000
FTUS42 TJSJ 291505 AAC
TAFJSJ
TAF AMD
TJSJ 291505Z 2915/3012 10010KT P6SM VCSH SCT025 SCT050
      TEMPO 2915/2916 5SM -SHRA BKN035
     FM291600 08012G22KT P6SM VCTS SCT030CB BKN050
     FM292300 11005KT P6SM SCT060=

USA.gov is the U.S. government's official web portal to all federal, state and local government web resources and services.